OTBH/IUD METAR and TAF weather

Enter ICAO airport designator
Station Type Date Time Source
OTBH METAR 2022/05/23 14:56 UTC NOAA

OTBH 231456Z 01015KT 9999 CLR 37/12 A2950 RMK AO2A SLP990 T03720119 52013 FZRANO $


Station Type Date Time Source
OTBH Decoded METAR 2022/05/23 14:56 UTC NOAA

Station name not available
May 23, 2022 - 10:56 AM EDT / 2022.05.23 1456 UTC
Wind: from the N (010 degrees) at 17 MPH (15 KT):0
Visibility: greater than 7 mile(s):0
Sky conditions: clear
Temperature: 99.0 F (37.2 C)
Heat index: 96.6 F (35.9 C):1
Dew Point: 53.4 F (11.9 C)
Relative Humidity: 21%
Pressure (altimeter): 29.5 in. Hg (998 hPa)
Pressure tendency: 0.04 inches (1.3 hPa) higher than three hours ago
ob: OTBH 231456Z 01015KT 9999 CLR 37/12 A2950 RMK AO2A SLP990 T03720119 52013 FZRANO
cycle: 15

Station Type Date Time Source
OTBH TAF 2022/05/23 09:57 UTC NOAA

TAF TAF
AMD OTBH 230945Z 2309/2414 34015G25KT 9000 DU SKC QNH2948INS
BECMG 2314/2316 05009KT 6000 DU SKC QNH2948INS
BECMG 2317/2318 34015G25KT 2000 BLDU BKN000 520002 QNH2956INS
TEMPO 2320/2404 34020G30KT 0600 DS VV005 520003
TEMPO 2322/2402 0200 +DS VV002
BECMG 2407/2408 34010G20KT 3000 DU SKC QNH2962INS TX45/2310Z TN25/2402Z

Example: see airport list